sensor_id;sensor_type;location;lat;lon;timestamp;temperature;humidity
49242;DHT22;35079;52.704;13.814;2023-05-29T00:00:26;12.70;99.90
49242;DHT22;35079;52.704;13.814;2023-05-29T00:02:51;12.50;99.90
49242;DHT22;35079;52.704;13.814;2023-05-29T00:05:17;12.60;99.90
49242;DHT22;35079;52.704;13.814;2023-05-29T00:07:43;12.60;99.90
49242;DHT22;35079;52.704;13.814;2023-05-29T00:10:10;12.60;99.90
49242;DHT22;35079;52.704;13.814;2023-05-29T00:12:37;12.50;99.90
49242;DHT22;35079;52.704;13.814;2023-05-29T00:15:03;12.50;99.90
49242;DHT22;35079;52.704;13.814;2023-05-29T00:17:29;12.40;99.90
49242;DHT22;35079;52.704;13.814;2023-05-29T00:20:00;12.50;99.90
49242;DHT22;35079;52.704;13.814;2023-05-29T00:22:27;12.60;99.90
49242;DHT22;35079;52.704;13.814;2023-05-29T00:24:53;12.40;99.90
49242;DHT22;35079;52.704;13.814;2023-05-29T00:27:19;12.40;99.90
49242;DHT22;35079;52.704;13.814;2023-05-29T00:29:45;12.50;99.90
49242;DHT22;35079;52.704;13.814;2023-05-29T00:32:11;12.40;99.90
49242;DHT22;35079;52.704;13.814;2023-05-29T00:34:36;12.40;99.90
49242;DHT22;35079;52.704;13.814;2023-05-29T00:37:02;12.30;99.90
49242;DHT22;35079;52.704;13.814;2023-05-29T00:39:28;12.30;99.90
49242;DHT22;35079;52.704;13.814;2023-05-29T00:41:53;12.30;99.90
49242;DHT22;35079;52.704;13.814;2023-05-29T00:44:20;12.20;99.90
49242;DHT22;35079;52.704;13.814;2023-05-29T00:46:47;12.20;99.90
49242;DHT22;35079;52.704;13.814;2023-05-29T00:49:14;12.20;99.90
49242;DHT22;35079;52.704;13.814;2023-05-29T00:51:40;12.20;99.90
49242;DHT22;35079;52.704;13.814;2023-05-29T00:54:07;12.20;99.90
49242;DHT22;35079;52.704;13.814;2023-05-29T00:56:34;12.10;99.90
49242;DHT22;35079;52.704;13.814;2023-05-29T00:59:01;12.10;99.90
49242;DHT22;35079;52.704;13.814;2023-05-29T01:01:27;12.10;99.90
49242;DHT22;35079;52.704;13.814;2023-05-29T01:03:55;12.20;99.90
49242;DHT22;35079;52.704;13.814;2023-05-29T01:06:22;12.20;99.90
49242;DHT22;35079;52.704;13.814;2023-05-29T01:08:48;12.40;99.90
49242;DHT22;35079;52.704;13.814;2023-05-29T01:11:26;12.30;99.90
49242;DHT22;35079;52.704;13.814;2023-05-29T01:13:56;12.30;99.90
49242;DHT22;35079;52.704;13.814;2023-05-29T01:19:01;12.20;99.90
49242;DHT22;35079;52.704;13.814;2023-05-29T01:25:11;12.20;99.90
49242;DHT22;35079;52.704;13.814;2023-05-29T01:27:14;12.20;99.90
49242;DHT22;35079;52.704;13.814;2023-05-29T01:29:43;12.20;99.90
49242;DHT22;35079;52.704;13.814;2023-05-29T01:32:11;12.20;99.90
49242;DHT22;35079;52.704;13.814;2023-05-29T01:34:36;12.10;99.90
49242;DHT22;35079;52.704;13.814;2023-05-29T01:37:02;12.10;99.90
49242;DHT22;35079;52.704;13.814;2023-05-29T01:39:29;11.90;99.90
49242;DHT22;35079;52.704;13.814;2023-05-29T01:41:55;12.00;99.90
49242;DHT22;35079;52.704;13.814;2023-05-29T01:44:21;11.90;99.90
49242;DHT22;35079;52.704;13.814;2023-05-29T01:46:48;11.90;99.90
49242;DHT22;35079;52.704;13.814;2023-05-29T01:49:15;11.90;99.90
49242;DHT22;35079;52.704;13.814;2023-05-29T01:51:42;11.80;99.90
49242;DHT22;35079;52.704;13.814;2023-05-29T01:54:08;11.90;99.90
49242;DHT22;35079;52.704;13.814;2023-05-29T01:56:34;11.70;99.90
49242;DHT22;35079;52.704;13.814;2023-05-29T01:59:02;11.70;99.90
49242;DHT22;35079;52.704;13.814;2023-05-29T02:01:28;11.70;99.90
49242;DHT22;35079;52.704;13.814;2023-05-29T02:03:53;11.50;99.90
49242;DHT22;35079;52.704;13.814;2023-05-29T02:06:19;11.50;99.90
49242;DHT22;35079;52.704;13.814;2023-05-29T02:08:45;11.50;99.90
49242;DHT22;35079;52.704;13.814;2023-05-29T02:11:11;11.50;99.90
49242;DHT22;35079;52.704;13.814;2023-05-29T02:13:37;11.40;99.90
49242;DHT22;35079;52.704;13.814;2023-05-29T02:16:03;11.40;99.90
49242;DHT22;35079;52.704;13.814;2023-05-29T02:18:28;11.30;99.90
49242;DHT22;35079;52.704;13.814;2023-05-29T02:20:54;11.30;99.90
49242;DHT22;35079;52.704;13.814;2023-05-29T02:23:20;11.30;99.90
49242;DHT22;35079;52.704;13.814;2023-05-29T02:25:46;11.30;99.90
49242;DHT22;35079;52.704;13.814;2023-05-29T02:28:12;11.30;99.90
49242;DHT22;35079;52.704;13.814;2023-05-29T02:30:37;11.10;99.90
49242;DHT22;35079;52.704;13.814;2023-05-29T02:33:03;11.20;99.90
49242;DHT22;35079;52.704;13.814;2023-05-29T02:35:29;11.10;99.90
49242;DHT22;35079;52.704;13.814;2023-05-29T02:37:54;11.10;99.90
49242;DHT22;35079;52.704;13.814;2023-05-29T02:40:20;11.10;99.90
49242;DHT22;35079;52.704;13.814;2023-05-29T02:42:47;11.10;99.90
49242;DHT22;35079;52.704;13.814;2023-05-29T02:45:13;11.20;99.90
49242;DHT22;35079;52.704;13.814;2023-05-29T02:47:38;11.10;99.90
49242;DHT22;35079;52.704;13.814;2023-05-29T02:50:04;11.20;99.90
49242;DHT22;35079;52.704;13.814;2023-05-29T02:52:32;11.00;99.90
49242;DHT22;35079;52.704;13.814;2023-05-29T02:54:57;11.00;99.90
49242;DHT22;35079;52.704;13.814;2023-05-29T02:57:24;11.00;99.90
49242;DHT22;35079;52.704;13.814;2023-05-29T02:59:50;11.00;99.90
49242;DHT22;35079;52.704;13.814;2023-05-29T03:02:17;10.90;99.90
49242;DHT22;35079;52.704;13.814;2023-05-29T03:04:43;10.90;99.90
49242;DHT22;35079;52.704;13.814;2023-05-29T03:07:09;11.00;99.90
49242;DHT22;35079;52.704;13.814;2023-05-29T03:09:35;11.10;99.90
49242;DHT22;35079;52.704;13.814;2023-05-29T03:12:01;11.00;99.90
49242;DHT22;35079;52.704;13.814;2023-05-29T03:14:27;11.10;99.90
49242;DHT22;35079;52.704;13.814;2023-05-29T03:16:53;10.90;99.90
49242;DHT22;35079;52.704;13.814;2023-05-29T03:19:19;10.90;99.90
49242;DHT22;35079;52.704;13.814;2023-05-29T03:21:45;11.00;99.90
49242;DHT22;35079;52.704;13.814;2023-05-29T03:24:11;11.00;99.90
49242;DHT22;35079;52.704;13.814;2023-05-29T03:26:39;10.90;99.90
49242;DHT22;35079;52.704;13.814;2023-05-29T03:29:04;11.00;99.90
49242;DHT22;35079;52.704;13.814;2023-05-29T03:31:31;11.00;99.90
49242;DHT22;35079;52.704;13.814;2023-05-29T03:33:58;10.90;99.90
49242;DHT22;35079;52.704;13.814;2023-05-29T03:36:24;10.90;99.90
49242;DHT22;35079;52.704;13.814;2023-05-29T03:38:50;11.00;99.90
49242;DHT22;35079;52.704;13.814;2023-05-29T03:41:15;11.00;99.90
49242;DHT22;35079;52.704;13.814;2023-05-29T03:43:41;11.00;99.90
49242;DHT22;35079;52.704;13.814;2023-05-29T03:46:07;11.10;99.90
49242;DHT22;35079;52.704;13.814;2023-05-29T03:48:32;11.00;99.90
49242;DHT22;35079;52.704;13.814;2023-05-29T03:50:58;11.10;99.90
49242;DHT22;35079;52.704;13.814;2023-05-29T03:53:23;11.20;99.90
49242;DHT22;35079;52.704;13.814;2023-05-29T03:55:49;11.20;99.90
49242;DHT22;35079;52.704;13.814;2023-05-29T03:58:15;11.10;99.90
49242;DHT22;35079;52.704;13.814;2023-05-29T04:00:41;11.30;99.90
49242;DHT22;35079;52.704;13.814;2023-05-29T04:03:06;11.30;99.90
49242;DHT22;35079;52.704;13.814;2023-05-29T04:05:32;11.40;99.90
49242;DHT22;35079;52.704;13.814;2023-05-29T04:07:58;11.40;99.90
49242;DHT22;35079;52.704;13.814;2023-05-29T04:10:23;11.50;99.90
49242;DHT22;35079;52.704;13.814;2023-05-29T04:12:50;11.80;99.90
49242;DHT22;35079;52.704;13.814;2023-05-29T04:15:16;11.80;99.90
49242;DHT22;35079;52.704;13.814;2023-05-29T04:17:41;11.80;99.90
49242;DHT22;35079;52.704;13.814;2023-05-29T04:20:07;11.90;99.90
49242;DHT22;35079;52.704;13.814;2023-05-29T04:22:37;11.90;99.90
49242;DHT22;35079;52.704;13.814;2023-05-29T04:25:04;12.00;99.90
49242;DHT22;35079;52.704;13.814;2023-05-29T04:27:30;12.00;99.90
49242;DHT22;35079;52.704;13.814;2023-05-29T04:29:57;12.00;99.90
49242;DHT22;35079;52.704;13.814;2023-05-29T04:32:23;12.20;99.90
49242;DHT22;35079;52.704;13.814;2023-05-29T04:34:49;12.10;99.90
49242;DHT22;35079;52.704;13.814;2023-05-29T04:37:16;12.20;99.90
49242;DHT22;35079;52.704;13.814;2023-05-29T04:39:42;12.20;99.90
49242;DHT22;35079;52.704;13.814;2023-05-29T04:42:08;12.30;99.90
49242;DHT22;35079;52.704;13.814;2023-05-29T04:44:34;12.40;99.90
49242;DHT22;35079;52.704;13.814;2023-05-29T04:46:59;12.40;99.90
49242;DHT22;35079;52.704;13.814;2023-05-29T04:49:28;12.50;99.90
49242;DHT22;35079;52.704;13.814;2023-05-29T04:51:54;12.50;99.90
49242;DHT22;35079;52.704;13.814;2023-05-29T04:54:21;12.60;99.90
49242;DHT22;35079;52.704;13.814;2023-05-29T04:56:47;12.60;99.90
49242;DHT22;35079;52.704;13.814;2023-05-29T04:59:13;12.80;99.90
49242;DHT22;35079;52.704;13.814;2023-05-29T05:01:38;12.80;99.90
49242;DHT22;35079;52.704;13.814;2023-05-29T05:04:04;12.90;99.90
49242;DHT22;35079;52.704;13.814;2023-05-29T05:06:30;13.00;99.90
49242;DHT22;35079;52.704;13.814;2023-05-29T05:08:56;13.10;99.90
49242;DHT22;35079;52.704;13.814;2023-05-29T05:11:22;13.30;99.90
49242;DHT22;35079;52.704;13.814;2023-05-29T05:13:48;13.40;99.90
49242;DHT22;35079;52.704;13.814;2023-05-29T05:16:14;13.40;99.90
49242;DHT22;35079;52.704;13.814;2023-05-29T05:18:40;13.60;99.90
49242;DHT22;35079;52.704;13.814;2023-05-29T05:21:05;13.70;99.90
49242;DHT22;35079;52.704;13.814;2023-05-29T05:23:32;13.80;99.90
49242;DHT22;35079;52.704;13.814;2023-05-29T05:25:57;13.80;99.90
49242;DHT22;35079;52.704;13.814;2023-05-29T05:28:23;13.90;99.90
49242;DHT22;35079;52.704;13.814;2023-05-29T05:30:48;13.90;99.90
49242;DHT22;35079;52.704;13.814;2023-05-29T05:33:14;14.10;99.90
49242;DHT22;35079;52.704;13.814;2023-05-29T05:35:40;14.10;99.90
49242;DHT22;35079;52.704;13.814;2023-05-29T05:38:05;14.30;99.90
49242;DHT22;35079;52.704;13.814;2023-05-29T05:40:32;14.40;99.90
49242;DHT22;35079;52.704;13.814;2023-05-29T05:42:58;14.50;99.90
49242;DHT22;35079;52.704;13.814;2023-05-29T05:45:23;14.60;99.90
49242;DHT22;35079;52.704;13.814;2023-05-29T05:47:49;14.80;99.90
49242;DHT22;35079;52.704;13.814;2023-05-29T05:50:15;14.90;99.90
49242;DHT22;35079;52.704;13.814;2023-05-29T05:52:40;15.00;99.90
49242;DHT22;35079;52.704;13.814;2023-05-29T05:55:06;15.10;99.90
49242;DHT22;35079;52.704;13.814;2023-05-29T05:57:33;15.20;99.90
49242;DHT22;35079;52.704;13.814;2023-05-29T06:00:03;15.40;99.90
49242;DHT22;35079;52.704;13.814;2023-05-29T06:02:38;15.50;99.90
49242;DHT22;35079;52.704;13.814;2023-05-29T06:05:08;15.60;99.90
49242;DHT22;35079;52.704;13.814;2023-05-29T06:07:34;15.80;99.90
49242;DHT22;35079;52.704;13.814;2023-05-29T06:10:01;15.80;99.90
49242;DHT22;35079;52.704;13.814;2023-05-29T06:12:26;15.90;99.90
49242;DHT22;35079;52.704;13.814;2023-05-29T06:14:52;16.00;99.90
49242;DHT22;35079;52.704;13.814;2023-05-29T06:17:18;15.90;99.90
49242;DHT22;35079;52.704;13.814;2023-05-29T06:19:44;15.90;99.90
49242;DHT22;35079;52.704;13.814;2023-05-29T06:22:09;15.80;99.90
49242;DHT22;35079;52.704;13.814;2023-05-29T06:24:35;16.20;99.90
49242;DHT22;35079;52.704;13.814;2023-05-29T06:27:00;16.30;99.90
49242;DHT22;35079;52.704;13.814;2023-05-29T06:29:26;16.60;99.90
49242;DHT22;35079;52.704;13.814;2023-05-29T06:31:52;16.70;99.90
49242;DHT22;35079;52.704;13.814;2023-05-29T06:34:18;16.70;99.90
49242;DHT22;35079;52.704;13.814;2023-05-29T06:36:43;17.00;99.90
49242;DHT22;35079;52.704;13.814;2023-05-29T06:39:10;17.00;99.10
49242;DHT22;35079;52.704;13.814;2023-05-29T06:41:35;17.00;98.60
49242;DHT22;35079;52.704;13.814;2023-05-29T06:44:01;16.90;98.70
49242;DHT22;35079;52.704;13.814;2023-05-29T06:46:27;17.10;98.40
49242;DHT22;35079;52.704;13.814;2023-05-29T06:48:52;17.10;98.40
49242;DHT22;35079;52.704;13.814;2023-05-29T06:51:18;17.40;98.60
49242;DHT22;35079;52.704;13.814;2023-05-29T06:53:43;17.50;98.90
49242;DHT22;35079;52.704;13.814;2023-05-29T06:56:09;17.60;98.10
49242;DHT22;35079;52.704;13.814;2023-05-29T06:58:35;17.90;97.40
49242;DHT22;35079;52.704;13.814;2023-05-29T07:01:01;17.70;96.80
49242;DHT22;35079;52.704;13.814;2023-05-29T07:03:27;17.90;97.20
49242;DHT22;35079;52.704;13.814;2023-05-29T07:05:53;17.90;97.30
49242;DHT22;35079;52.704;13.814;2023-05-29T07:08:19;18.10;96.00
49242;DHT22;35079;52.704;13.814;2023-05-29T07:10:44;18.20;94.70
49242;DHT22;35079;52.704;13.814;2023-05-29T07:13:14;18.20;95.40
49242;DHT22;35079;52.704;13.814;2023-05-29T07:15:40;18.20;95.40
49242;DHT22;35079;52.704;13.814;2023-05-29T07:18:06;18.40;95.50
49242;DHT22;35079;52.704;13.814;2023-05-29T07:20:31;18.70;95.20
49242;DHT22;35079;52.704;13.814;2023-05-29T07:22:57;18.80;93.70
49242;DHT22;35079;52.704;13.814;2023-05-29T07:25:23;18.70;93.70
49242;DHT22;35079;52.704;13.814;2023-05-29T07:27:48;18.90;93.50
49242;DHT22;35079;52.704;13.814;2023-05-29T07:30:14;18.40;94.00
49242;DHT22;35079;52.704;13.814;2023-05-29T07:32:40;18.40;93.20
49242;DHT22;35079;52.704;13.814;2023-05-29T07:35:06;18.50;93.50
49242;DHT22;35079;52.704;13.814;2023-05-29T07:37:32;18.70;93.40
49242;DHT22;35079;52.704;13.814;2023-05-29T07:39:58;18.90;92.80
49242;DHT22;35079;52.704;13.814;2023-05-29T07:42:23;19.10;92.90
49242;DHT22;35079;52.704;13.814;2023-05-29T07:44:49;19.10;91.00
49242;DHT22;35079;52.704;13.814;2023-05-29T07:47:15;19.00;91.60
49242;DHT22;35079;52.704;13.814;2023-05-29T07:49:40;19.20;91.50
49242;DHT22;35079;52.704;13.814;2023-05-29T07:52:06;19.30;91.00
49242;DHT22;35079;52.704;13.814;2023-05-29T07:54:32;19.30;90.80
49242;DHT22;35079;52.704;13.814;2023-05-29T07:57:00;19.30;89.60
49242;DHT22;35079;52.704;13.814;2023-05-29T07:59:28;19.30;90.10
49242;DHT22;35079;52.704;13.814;2023-05-29T08:01:54;19.40;88.60
49242;DHT22;35079;52.704;13.814;2023-05-29T08:04:24;19.40;90.00
49242;DHT22;35079;52.704;13.814;2023-05-29T08:06:50;19.40;89.00
49242;DHT22;35079;52.704;13.814;2023-05-29T08:09:16;19.50;88.90
49242;DHT22;35079;52.704;13.814;2023-05-29T08:11:42;19.90;87.80
49242;DHT22;35079;52.704;13.814;2023-05-29T08:14:11;20.00;89.30
49242;DHT22;35079;52.704;13.814;2023-05-29T08:16:37;20.20;87.40
49242;DHT22;35079;52.704;13.814;2023-05-29T08:19:02;20.20;86.60
49242;DHT22;35079;52.704;13.814;2023-05-29T08:21:29;20.40;82.90
49242;DHT22;35079;52.704;13.814;2023-05-29T08:23:57;20.30;83.00
49242;DHT22;35079;52.704;13.814;2023-05-29T08:26:22;20.40;84.20
49242;DHT22;35079;52.704;13.814;2023-05-29T08:28:48;20.60;81.40
49242;DHT22;35079;52.704;13.814;2023-05-29T08:31:14;20.70;81.60
49242;DHT22;35079;52.704;13.814;2023-05-29T08:33:39;21.00;80.50
49242;DHT22;35079;52.704;13.814;2023-05-29T08:36:05;21.30;78.90
49242;DHT22;35079;52.704;13.814;2023-05-29T08:38:31;21.60;79.80
49242;DHT22;35079;52.704;13.814;2023-05-29T08:40:57;21.60;74.80
49242;DHT22;35079;52.704;13.814;2023-05-29T08:43:24;21.60;74.90
49242;DHT22;35079;52.704;13.814;2023-05-29T08:45:55;21.30;73.80
49242;DHT22;35079;52.704;13.814;2023-05-29T08:48:24;21.70;73.40
49242;DHT22;35079;52.704;13.814;2023-05-29T08:50:53;22.10;70.60
49242;DHT22;35079;52.704;13.814;2023-05-29T08:53:21;22.10;69.50
49242;DHT22;35079;52.704;13.814;2023-05-29T08:55:47;22.30;70.00
49242;DHT22;35079;52.704;13.814;2023-05-29T08:58:14;22.30;69.30
49242;DHT22;35079;52.704;13.814;2023-05-29T09:00:41;21.70;69.00
49242;DHT22;35079;52.704;13.814;2023-05-29T09:03:07;21.70;70.70
49242;DHT22;35079;52.704;13.814;2023-05-29T09:05:33;21.30;69.90
49242;DHT22;35079;52.704;13.814;2023-05-29T09:07:59;21.50;70.50
49242;DHT22;35079;52.704;13.814;2023-05-29T09:10:25;22.10;67.00
49242;DHT22;35079;52.704;13.814;2023-05-29T09:12:51;22.50;64.50
49242;DHT22;35079;52.704;13.814;2023-05-29T09:15:18;23.00;63.10
49242;DHT22;35079;52.704;13.814;2023-05-29T09:17:57;23.30;62.40
49242;DHT22;35079;52.704;13.814;2023-05-29T09:20:23;22.90;63.40
49242;DHT22;35079;52.704;13.814;2023-05-29T09:23:03;22.80;64.40
49242;DHT22;35079;52.704;13.814;2023-05-29T09:25:34;23.60;63.70
49242;DHT22;35079;52.704;13.814;2023-05-29T09:28:00;24.40;61.50
49242;DHT22;35079;52.704;13.814;2023-05-29T09:33:00;24.50;60.20
49242;DHT22;35079;52.704;13.814;2023-05-29T09:35:40;25.30;61.50
49242;DHT22;35079;52.704;13.814;2023-05-29T09:38:07;25.60;58.60
49242;DHT22;35079;52.704;13.814;2023-05-29T09:40:35;25.00;57.90
49242;DHT22;35079;52.704;13.814;2023-05-29T09:43:12;24.20;57.10
49242;DHT22;35079;52.704;13.814;2023-05-29T09:45:49;23.40;58.80
49242;DHT22;35079;52.704;13.814;2023-05-29T09:48:16;23.00;60.00
49242;DHT22;35079;52.704;13.814;2023-05-29T09:50:43;22.40;59.70
49242;DHT22;35079;52.704;13.814;2023-05-29T09:53:20;22.90;61.20
49242;DHT22;35079;52.704;13.814;2023-05-29T09:55:49;24.70;58.40
49242;DHT22;35079;52.704;13.814;2023-05-29T09:58:17;25.80;56.70
49242;DHT22;35079;52.704;13.814;2023-05-29T10:00:43;25.60;55.60
49242;DHT22;35079;52.704;13.814;2023-05-29T10:03:10;25.00;56.20
49242;DHT22;35079;52.704;13.814;2023-05-29T10:05:40;24.40;56.90
49242;DHT22;35079;52.704;13.814;2023-05-29T10:08:14;23.80;57.80
49242;DHT22;35079;52.704;13.814;2023-05-29T10:10:43;23.00;57.70
49242;DHT22;35079;52.704;13.814;2023-05-29T10:13:13;22.40;59.30
49242;DHT22;35079;52.704;13.814;2023-05-29T10:15:44;22.60;60.30
49242;DHT22;35079;52.704;13.814;2023-05-29T10:18:26;22.40;61.70
49242;DHT22;35079;52.704;13.814;2023-05-29T10:20:54;22.40;61.20
49242;DHT22;35079;52.704;13.814;2023-05-29T10:23:23;22.00;62.30
49242;DHT22;35079;52.704;13.814;2023-05-29T10:25:55;22.00;60.70
49242;DHT22;35079;52.704;13.814;2023-05-29T10:28:25;21.90;60.40
49242;DHT22;35079;52.704;13.814;2023-05-29T10:31:01;21.80;62.50
49242;DHT22;35079;52.704;13.814;2023-05-29T10:36:22;23.80;58.60
49242;DHT22;35079;52.704;13.814;2023-05-29T10:38:50;25.40;54.90
49242;DHT22;35079;52.704;13.814;2023-05-29T10:43:56;27.30;50.50
49242;DHT22;35079;52.704;13.814;2023-05-29T10:49:21;25.80;50.80
49242;DHT22;35079;52.704;13.814;2023-05-29T10:51:50;24.90;53.90
49242;DHT22;35079;52.704;13.814;2023-05-29T10:54:19;23.60;53.80
49242;DHT22;35079;52.704;13.814;2023-05-29T10:56:52;23.30;55.60
49242;DHT22;35079;52.704;13.814;2023-05-29T10:59:18;23.20;56.70
49242;DHT22;35079;52.704;13.814;2023-05-29T11:01:44;22.90;56.00
49242;DHT22;35079;52.704;13.814;2023-05-29T11:06:51;23.60;57.60
49242;DHT22;35079;52.704;13.814;2023-05-29T11:09:26;25.10;54.80
49242;DHT22;35079;52.704;13.814;2023-05-29T11:14:52;27.60;50.40
49242;DHT22;35079;52.704;13.814;2023-05-29T11:20:07;25.70;49.80
49242;DHT22;35079;52.704;13.814;2023-05-29T11:25:14;25.00;52.90
49242;DHT22;35079;52.704;13.814;2023-05-29T11:27:41;24.40;52.30
49242;DHT22;35079;52.704;13.814;2023-05-29T11:30:08;23.50;53.40
49242;DHT22;35079;52.704;13.814;2023-05-29T11:32:36;23.10;53.20
49242;DHT22;35079;52.704;13.814;2023-05-29T11:35:07;22.80;56.10
49242;DHT22;35079;52.704;13.814;2023-05-29T11:37:41;23.60;55.60
49242;DHT22;35079;52.704;13.814;2023-05-29T11:40:11;25.00;53.60
49242;DHT22;35079;52.704;13.814;2023-05-29T11:42:42;26.50;52.30
49242;DHT22;35079;52.704;13.814;2023-05-29T11:45:15;28.10;49.10
49242;DHT22;35079;52.704;13.814;2023-05-29T11:47:55;29.40;48.10
49242;DHT22;35079;52.704;13.814;2023-05-29T11:50:23;30.90;45.40
49242;DHT22;35079;52.704;13.814;2023-05-29T11:52:49;30.00;43.30
49242;DHT22;35079;52.704;13.814;2023-05-29T11:55:19;29.20;43.80
49242;DHT22;35079;52.704;13.814;2023-05-29T11:57:46;28.30;44.10
49242;DHT22;35079;52.704;13.814;2023-05-29T12:00:14;27.50;45.90
49242;DHT22;35079;52.704;13.814;2023-05-29T12:02:40;26.10;47.20
49242;DHT22;35079;52.704;13.814;2023-05-29T12:05:08;25.40;48.70
49242;DHT22;35079;52.704;13.814;2023-05-29T12:07:35;24.40;49.40
49242;DHT22;35079;52.704;13.814;2023-05-29T12:12:36;24.50;50.80
49242;DHT22;35079;52.704;13.814;2023-05-29T12:15:02;24.30;50.00
49242;DHT22;35079;52.704;13.814;2023-05-29T12:17:31;23.80;51.90
49242;DHT22;35079;52.704;13.814;2023-05-29T12:19:57;23.60;51.90
49242;DHT22;35079;52.704;13.814;2023-05-29T12:22:37;23.20;51.80
49242;DHT22;35079;52.704;13.814;2023-05-29T12:27:35;25.30;51.60
49242;DHT22;35079;52.704;13.814;2023-05-29T12:30:07;26.30;50.70
49242;DHT22;35079;52.704;13.814;2023-05-29T12:32:44;26.60;48.10
49242;DHT22;35079;52.704;13.814;2023-05-29T12:37:56;25.80;48.50
49242;DHT22;35079;52.704;13.814;2023-05-29T12:40:29;24.80;48.70
49242;DHT22;35079;52.704;13.814;2023-05-29T12:43:03;25.10;50.60
49242;DHT22;35079;52.704;13.814;2023-05-29T12:45:31;25.90;50.00
49242;DHT22;35079;52.704;13.814;2023-05-29T12:48:01;26.70;48.80
49242;DHT22;35079;52.704;13.814;2023-05-29T12:53:01;27.70;46.40
49242;DHT22;35079;52.704;13.814;2023-05-29T12:55:33;28.30;46.10
49242;DHT22;35079;52.704;13.814;2023-05-29T12:58:02;27.90;47.10
49242;DHT22;35079;52.704;13.814;2023-05-29T13:00:28;28.00;45.80
49242;DHT22;35079;52.704;13.814;2023-05-29T13:02:54;28.30;45.30
49242;DHT22;35079;52.704;13.814;2023-05-29T13:05:20;27.90;45.30
49242;DHT22;35079;52.704;13.814;2023-05-29T13:07:49;27.00;46.00
49242;DHT22;35079;52.704;13.814;2023-05-29T13:10:16;26.50;46.70
49242;DHT22;35079;52.704;13.814;2023-05-29T13:12:42;26.00;47.60
49242;DHT22;35079;52.704;13.814;2023-05-29T13:15:09;25.30;49.10
49242;DHT22;35079;52.704;13.814;2023-05-29T13:17:35;24.80;50.60
49242;DHT22;35079;52.704;13.814;2023-05-29T13:20:01;24.60;51.60
49242;DHT22;35079;52.704;13.814;2023-05-29T13:22:26;25.40;50.00
49242;DHT22;35079;52.704;13.814;2023-05-29T13:24:57;25.70;50.10
49242;DHT22;35079;52.704;13.814;2023-05-29T13:27:25;26.30;49.60
49242;DHT22;35079;52.704;13.814;2023-05-29T13:29:51;26.10;49.80
49242;DHT22;35079;52.704;13.814;2023-05-29T13:32:17;25.60;49.60
49242;DHT22;35079;52.704;13.814;2023-05-29T13:34:42;24.90;48.50
49242;DHT22;35079;52.704;13.814;2023-05-29T13:37:08;24.30;48.80
49242;DHT22;35079;52.704;13.814;2023-05-29T13:39:33;24.50;50.30
49242;DHT22;35079;52.704;13.814;2023-05-29T13:41:59;24.60;51.00
49242;DHT22;35079;52.704;13.814;2023-05-29T13:44:25;24.50;50.60
49242;DHT22;35079;52.704;13.814;2023-05-29T13:46:51;24.40;50.80
49242;DHT22;35079;52.704;13.814;2023-05-29T13:49:17;23.80;51.30
49242;DHT22;35079;52.704;13.814;2023-05-29T13:51:43;23.70;52.00
49242;DHT22;35079;52.704;13.814;2023-05-29T13:54:10;23.50;52.40
49242;DHT22;35079;52.704;13.814;2023-05-29T13:56:36;23.40;52.80
49242;DHT22;35079;52.704;13.814;2023-05-29T13:59:01;23.20;52.30
49242;DHT22;35079;52.704;13.814;2023-05-29T14:01:30;23.50;53.50
49242;DHT22;35079;52.704;13.814;2023-05-29T14:03:56;23.70;52.50
49242;DHT22;35079;52.704;13.814;2023-05-29T14:06:22;23.80;51.90
49242;DHT22;35079;52.704;13.814;2023-05-29T14:08:47;24.10;53.20
49242;DHT22;35079;52.704;13.814;2023-05-29T14:11:13;24.20;51.50
49242;DHT22;35079;52.704;13.814;2023-05-29T14:13:38;24.40;51.70
49242;DHT22;35079;52.704;13.814;2023-05-29T14:16:04;24.60;51.40
49242;DHT22;35079;52.704;13.814;2023-05-29T14:18:30;24.60;50.20
49242;DHT22;35079;52.704;13.814;2023-05-29T14:20:55;24.60;50.20
49242;DHT22;35079;52.704;13.814;2023-05-29T14:23:21;24.80;49.30
49242;DHT22;35079;52.704;13.814;2023-05-29T14:25:47;24.60;50.70
49242;DHT22;35079;52.704;13.814;2023-05-29T14:28:12;24.40;51.20
49242;DHT22;35079;52.704;13.814;2023-05-29T14:30:38;24.60;50.50
49242;DHT22;35079;52.704;13.814;2023-05-29T14:33:04;24.40;50.60
49242;DHT22;35079;52.704;13.814;2023-05-29T14:35:31;24.10;49.70
49242;DHT22;35079;52.704;13.814;2023-05-29T14:37:57;24.30;51.40
49242;DHT22;35079;52.704;13.814;2023-05-29T14:40:22;24.40;51.00
49242;DHT22;35079;52.704;13.814;2023-05-29T14:42:48;24.70;49.80
49242;DHT22;35079;52.704;13.814;2023-05-29T14:45:13;24.70;49.50
49242;DHT22;35079;52.704;13.814;2023-05-29T14:47:40;24.60;50.80
49242;DHT22;35079;52.704;13.814;2023-05-29T14:50:06;24.60;50.10
49242;DHT22;35079;52.704;13.814;2023-05-29T14:52:33;24.50;49.90
49242;DHT22;35079;52.704;13.814;2023-05-29T14:55:03;24.50;49.80
49242;DHT22;35079;52.704;13.814;2023-05-29T14:57:29;24.00;50.40
49242;DHT22;35079;52.704;13.814;2023-05-29T14:59:58;24.20;48.70
49242;DHT22;35079;52.704;13.814;2023-05-29T15:02:23;24.10;49.10
49242;DHT22;35079;52.704;13.814;2023-05-29T15:04:49;23.80;50.00
49242;DHT22;35079;52.704;13.814;2023-05-29T15:07:16;23.90;48.40
49242;DHT22;35079;52.704;13.814;2023-05-29T15:09:41;23.60;50.30
49242;DHT22;35079;52.704;13.814;2023-05-29T15:12:08;23.60;52.00
49242;DHT22;35079;52.704;13.814;2023-05-29T15:14:34;23.40;51.30
49242;DHT22;35079;52.704;13.814;2023-05-29T15:16:59;23.50;51.80
49242;DHT22;35079;52.704;13.814;2023-05-29T15:19:25;23.10;51.60
49242;DHT22;35079;52.704;13.814;2023-05-29T15:21:51;23.30;52.00
49242;DHT22;35079;52.704;13.814;2023-05-29T15:24:17;23.20;52.10
49242;DHT22;35079;52.704;13.814;2023-05-29T15:26:43;23.00;52.20
49242;DHT22;35079;52.704;13.814;2023-05-29T15:29:09;22.90;52.10
49242;DHT22;35079;52.704;13.814;2023-05-29T15:31:35;22.80;53.40
49242;DHT22;35079;52.704;13.814;2023-05-29T15:34:00;22.70;53.70
49242;DHT22;35079;52.704;13.814;2023-05-29T15:36:26;22.50;54.30
49242;DHT22;35079;52.704;13.814;2023-05-29T15:38:53;22.60;53.70
49242;DHT22;35079;52.704;13.814;2023-05-29T15:41:19;22.40;53.50
49242;DHT22;35079;52.704;13.814;2023-05-29T15:43:44;22.20;53.60
49242;DHT22;35079;52.704;13.814;2023-05-29T15:46:10;22.20;53.50
49242;DHT22;35079;52.704;13.814;2023-05-29T15:48:36;22.00;53.20
49242;DHT22;35079;52.704;13.814;2023-05-29T15:51:01;21.80;52.80